Pioche, Nevada Weather observations

Data are for observation ending at time listed.
 Day   Time    Ave.   Ave.  Ave.  Vector   Max.   Stn.    Total    Solar   Ave.  
  of    of     Air    Rel.  Wind   Wind    Wind   Baro.  Precip.   Rad.    Soil  
Year   Day     Temp.  Hum.  Speed  Dir.    Gust   Pres.                    Temp. 
2016   (PST)    F      %     mph   deg.    mph     mb.     in.     W/m2     F   
------------------------------------------------------------------------------
 238   18:50   66.6    36    7.0   128     13.3   820.4    0.00       0    73.6
 238   19:00   67.3    33    5.7   122     10.4   820.4    0.00       0    73.6
 238   19:10   66.9    34    3.4   148      7.2   820.4    0.00       0    73.6
 238   19:20   66.2    36    2.9   140      6.6   820.5    0.00       0    73.6
 238   19:30   65.8    38    2.0   111      5.0   820.6    0.00       0    73.6
 238   19:40   65.8    37    3.9   102      7.9   820.5    0.00       0    73.6
 238   19:50   65.1    38    2.8    75      6.5   820.7    0.00       0    73.6
 238   20:00   64.2    40    1.8   100      3.9   820.9    0.00       0    73.5
 238   20:10   63.4    44    1.2   285      4.1   821.1    0.00       0    73.5
 238   20:20   63.7    43    1.3   305      2.7   821.3    0.00       0    73.5
 238   20:30   63.8    44    2.0   244      6.2   821.5    0.00       0    73.5
 238   20:40   64.1    42    0.8   258      3.8   821.5    0.00       0    73.4
 238   20:50   64.0    43    3.1   133      5.8   821.3    0.00       0    73.3
 238   21:00   63.7    44    5.9   140     10.8   821.4    0.00       0    73.3
 238   21:10   63.2    46    7.1   140     11.0   821.4    0.00       0    73.3
 238   21:20   63.0    46    7.1   122     10.9   821.4    0.00       0    73.2
 238   21:30   63.1    45    6.6   130     10.2   821.4    0.00       0    73.2
 238   21:40   62.2    48    6.2   133      8.7   821.3    0.00       0    73.1
 238   21:50   62.2    46    4.1   140      9.3   821.4    0.00       0    73.1
 238   22:00   61.3    49    3.6   138      5.2   821.4    0.00       0    73.0
 238   22:10   60.6    50    3.9   137      5.6   821.3    0.00       0    73.0
 238   22:20   61.3    47    2.8   119      5.8   821.3    0.00       0    73.0
 238   22:30   61.4    46    2.2   134      3.9   821.4    0.00       0    72.9
 238   22:40   61.1    47    1.1   122      3.7   821.5    0.00       0    72.9
 238   22:50   61.6    45    4.1   145      8.3   821.5    0.00       0    72.8
 238   23:00   62.7    43    5.1   149      8.0   821.5    0.00       0    72.8
 238   23:10   62.6    44    4.2   142      7.6   821.6    0.00       0    72.7
 238   23:20   60.2    50    2.0    73      5.5   821.7    0.00       0    72.6
 238   23:30   58.7    52    4.1   101      6.4   821.6    0.00       0    72.6
 238   23:40   60.3    49    1.7    96      4.9   821.6    0.00       0    72.6
 238   23:50   60.4    49    2.7   136      5.3   821.6    0.00       0    72.5
 239    0:00   60.3    50    4.6   138      7.0   821.5    0.00       0    72.5
 239    0:10   60.4    49    4.9   139      7.2   821.5    0.00       0    72.4
 239    0:20   60.1    50    4.3   136      6.3   821.6    0.00       0    72.3
 239    0:30   59.6    51    4.1   127      6.4   821.6    0.00       0    72.3
 239    0:40   59.3    51    4.8   140      6.1   821.5    0.00       0    72.2
 239    0:50   59.2    52    4.3   144      5.8   821.6    0.00       0    72.2
 239    1:00   59.1    52    3.3   132      5.1   821.6    0.00       0    72.1
 239    1:10   59.2    52    2.8   129      4.4   821.6    0.00       0    72.1
 239    1:20   59.3    52    1.6   132      3.8   821.5    0.00       0    72.0
 239    1:30   58.6    54    2.6   139      3.9   821.5    0.00       0    72.0
 239    1:40   58.6    54    1.2   117      2.8   821.5    0.00       0    71.9
 239    1:50   58.5    54    2.0   143      3.8   821.5    0.00       0    71.9
 239    2:00   58.2    55    2.5   149      4.6   821.5    0.00       0    71.8
 239    2:10   58.5    55    3.4   146      4.9   821.4    0.00       0    71.8
 239    2:20   58.1    56    3.6   137      5.3   821.4    0.00       0    71.7
 239    2:30   58.2    56    3.8   134      5.0   821.4    0.00       0    71.7
 239    2:40   58.5    55    3.5   137      5.8   821.4    0.00       0    71.6
 239    2:50   58.8    55    3.9   131      7.8   821.3    0.00       0    71.5
 239    3:00   59.4    54    5.9   139      9.6   821.3    0.00       0    71.5
 239    3:10   59.8    53    7.4   145     11.3   821.3    0.00       0    71.4
 239    3:20   59.7    53    7.7   140     13.7   821.2    0.00       0    71.4
 239    3:30   59.6    54    7.6   135     12.3   821.2    0.00       0    71.3
 239    3:40   59.6    54    9.6   130     15.2   821.3    0.00       0    71.2
 239    3:50   59.4    54    8.4   132     15.3   821.3    0.00       0    71.2
 239    4:00   59.1    55    8.1   135     13.0   821.3    0.00       0    71.1
 239    4:10   58.7    56    7.7   140     11.5   821.3    0.00       0    71.1
 239    4:20   58.5    56    6.9   142     11.8   821.4    0.00       0    71.0
 239    4:30   58.2    57    6.2   140      9.1   821.4    0.00       0    71.0
 239    4:40   57.9    58    4.8   138      8.3   821.5    0.00       0    70.9
 239    4:50   57.8    58    4.4   135      6.7   821.6    0.00       0    70.9
 239    5:00   57.5    59    2.2   132      5.4   821.7    0.00       0    70.8
 239    5:10   57.1    60    4.1   142      6.3   821.7    0.00       5    70.7
 239    5:20   57.1    60    5.2   144      7.8   821.8    0.00      10    70.7
 239    5:30   58.2    58    6.2   147     10.5   821.9    0.00      16    70.6
 239    5:40   58.4    58    5.0   157      8.5   822.0    0.00      25    70.6
 239    5:50   58.9    58    5.9   165     10.8   822.0    0.00      74    70.5
 239    6:00   59.5    58    7.3   166     13.7   822.0    0.00     116    70.4
 239    6:10   59.8    58    7.7   148     12.6   822.0    0.00     148    70.4
 239    6:20   60.0    58    9.1   149     14.4   822.0    0.00     181    70.4
 239    6:30   60.6    58    7.4   156     14.4   822.1    0.00     216    70.3
 239    6:40   61.1    57    7.9   163     13.7   822.2    0.00     253    70.3
 239    6:50   61.4    56    9.6   152     15.1   822.2    0.00     291    70.2
 239    7:00   61.8    56    9.1   155     15.2   822.3    0.00     326    70.1
 239    7:10   62.2    56    9.7   164     15.4   822.2    0.00     360    70.1
 239    7:20   62.8    55    9.6   165     16.9   822.3    0.00     396    70.1
 239    7:30   63.3    54    8.9   164     16.3   822.3    0.00     432    70.0
 239    7:40   63.8    52    9.0   155     16.5   822.3    0.00     467    70.0
 239    7:50   64.5    51    9.0   148     13.6   822.3    0.00     505    70.0
 239    8:00   64.6    51   10.0   146     15.6   822.3    0.00     541    69.9
 239    8:10   64.6    52   10.7   147     15.9   822.4    0.00     575    69.9
 239    8:20   65.0    51   10.9   148     16.4   822.4    0.00     609    69.9
 239    8:30   65.3    51   11.1   141     16.4   822.4    0.00     642    69.8
 239    8:40   66.0    50   10.5   141     17.2   822.4    0.00     673    69.8
 239    8:50   66.7    48    9.3   137     15.1   822.4    0.00     700    69.8
 239    9:00   67.3    47   10.9   144     16.7   822.4    0.00     728    69.8
 239    9:10   67.6    47   10.4   137     15.8   822.3    0.00     754    69.8
 239    9:20   68.3    46   10.7   148     17.1   822.4    0.00     781    69.8
 239    9:30   69.2    44   11.1   142     16.4   822.4    0.00     803    69.8
 239    9:40   69.6    43   11.5   146     18.6   822.3    0.00     825    69.7
 239    9:50   70.3    41   10.9   131     17.0   822.3    0.00     847    69.7
 239   10:00   71.1    41    9.4   128     17.8   822.2    0.00     866    69.7
 239   10:10   71.8    39    9.9   123     16.4   822.2    0.00     882    69.7
 239   10:20   73.2    36    8.7   137     16.2   822.1    0.00     901    69.7
 239   10:30   73.7    36    8.1   140     15.4   822.1    0.00     918    69.7
 239   10:40   74.4    34    8.9   139     16.6   822.1    0.00     930    69.7
 239   10:50   73.8    35    8.9   135     16.6   822.0    0.00     939    69.7
 239   11:00   74.9    34    8.2   149     16.3   822.0    0.00     951    69.8
 239   11:10   75.5    32    7.3   146     13.2   821.9    0.00     973    69.9
 239   11:20   76.4    30    6.0   124     18.0   821.8    0.00    1003    69.9
 239   11:30   76.3    31    8.8   137     18.4   821.8    0.00    1024    70.0
 239   11:40   76.8    30    7.4   129     17.2   821.6    0.00     983    70.1
 239   11:50   77.6    27    9.7   149     20.5   821.5    0.00     948    70.1
 239   12:00   76.9    28   10.5   148     22.9   821.4    0.00    1082    70.2
 239   12:10   77.9    27    8.5   142     19.7   821.4    0.00     987    70.3
 239   12:20   77.4    26    6.3   176     18.5   821.3    0.00     817    70.4
 239   12:30   77.7    26    8.5   153     18.0   821.2    0.00     983    70.6
 239   12:40   78.3    25    8.7   145     20.0   821.0    0.00     978    70.7
 239   12:50   78.2    21   13.5   143     22.4   821.0    0.00     939    70.8
 239   13:00   78.7    20    9.3   135     16.1   820.9    0.00     924    70.9
 239   13:10   79.2    19    6.3   163     15.5   820.8    0.00     979    71.0
 239   13:20   79.2    20    6.9   152     18.1   820.6    0.00     700    71.2
 239   13:30   78.6    20    6.0   142     17.2   820.5    0.00     509    71.3
 239   13:40   79.0    20    7.1   173     18.5   820.4    0.00     755    71.4
 239   13:50   80.1    20    5.6   189     14.9   820.4    0.00     862    71.6
 239   14:00   78.9    20    8.3   156     17.4   820.3    0.00     568    71.7
 239   14:10   78.3    21    6.8   144     16.5   820.3    0.00     523    71.8
 239   14:20   77.9    23    8.2   142     17.8   820.2    0.00     325    72.0
 239   14:30   77.4    22    7.6   159     14.5   820.2    0.00     523    72.2
 239   14:40   78.4    20    4.0   171     13.8   820.1    0.00     447    72.3
 239   14:50   78.3    20    5.2   177     14.7   820.1    0.00     300    72.5
 239   15:00   78.1    22    6.7   176     14.0   820.0    0.00     462    72.6
 239   15:10   79.4    17    4.5   202     10.7   820.0    0.00     501    72.7
 239   15:20   77.6    24    6.4   155     15.9   819.9    0.00     189    72.9
 239   15:30   76.6    24    8.7   120     18.7   819.8    0.00     101    73.0
 239   15:40   76.4    24    8.9   116     16.4   819.7    0.00      68    73.1
 239   15:50   75.5    23    7.4   276     14.0   819.8    0.00      71    73.3
 239   16:00   74.7    24    8.5   282     17.1   819.8    0.00     102    73.4
 239   16:10   74.6    24    4.2   230     10.6   819.8    0.00     128    73.5
 239   16:20   75.7    22    3.4   145      8.1   819.8    0.00     149    73.6
 239   16:30   76.4    22    2.8   274      8.6   819.7    0.00     161    73.7
 239   16:40   77.3    23    2.6   257      6.3   819.7    0.00     160    73.7
 239   16:50   76.9    24    2.6   139     11.7   819.7    0.00     134    73.8
 239   17:00   76.3    26    7.8   139     16.1   819.6    0.00     102    73.9
 239   17:10   75.6    28    9.1   137     15.6   819.7    0.00      97    74.0
 239   17:20   75.3    29   11.1   120     18.9   819.7    0.00      76    74.1
 239   17:30   74.6    29   12.9   119     22.6   819.7    0.00      57    74.1
 239   17:40   74.3    29   11.1   121     20.6   819.7    0.00      56    74.2
 239   17:50   74.2    29    8.8   145     17.3   819.7    0.00      23    74.2
 239   18:00   73.0    26    6.6   259     15.3   820.1    0.00      10    74.3
 239   18:10   71.9    26    8.7   303     20.0   820.4    0.00       4    74.3
 239   18:20   70.2    29   14.2   324     25.2   820.8    0.00       0    74.4
 239   18:30   68.1    31    8.8   320     16.7   821.2    0.00       0    74.4
 239   18:40   65.8    37    7.4   326     18.3   821.3    0.00       0    74.4

Return to Pioche, Nevada graphs page.


Western Regional Climate Center,wrcc@dri.edu